Salt Lake City, Utah
Traffic Map
Current Weather Conditions
Salt Lake City, Utah
Few Clouds
Few Clouds

Feels Like: 7°
Wind Chill: Ceiling: Unl
Heat Index: Visibility: 9mi
Dew Point: Wind: 0mph
Humidity: 82% Direction: ° ()
Pressure: 30.15in Gusts: 0mph
Raw Report DataKSLC 241353Z 00000KT 9SM FEW200 07/04 A3015 RMK AO2 SLP190 T00670039
Traffic Incident Summary
Active as of:
Severity:
Category:
InformationThere was an issue retrieving the traffic information for this location. Please try a different location or try again shortly.
Advertisements
Track Severe Weather on mobile